Time;durP1;ratioP1;P1;durP2;ratioP2;P2;SDS_P1;SDS_P2;PMS_P1;PMS_P2;Temp;Humidity;BMP_temperature;BMP_pressure;BME280_temperature;BME280_humidity;BME280_pressure;Samples;Min_cycle;Max_cycle;Signal;HPM_P1;HPM_P2
2023/09/29 00:01:57;;;;;;;24.95;5.00;;;;;;;;;;4988711;28;92586;-64
2023/09/29 00:04:23;;;;;;;18.85;4.97;;;;;;;;;;4994132;28;93342;-65
2023/09/29 00:06:50;;;;;;;18.98;4.40;;;;;;;;;;4986590;28;95227;-65
2023/09/29 00:09:16;;;;;;;20.67;4.78;;;;;;;;;;4991945;28;94239;-65
2023/09/29 00:11:42;;;;;;;30.63;5.68;;;;;;;;;;4992016;28;92416;-65
2023/09/29 00:14:09;;;;;;;19.60;4.07;;;;;;;;;;4991781;28;92753;-65
2023/09/29 00:16:35;;;;;;;17.45;4.30;;;;;;;;;;4994174;28;94523;-65
2023/09/29 00:19:02;;;;;;;21.20;4.55;;;;;;;;;;4991749;28;93562;-65
2023/09/29 00:21:28;;;;;;;13.93;3.95;;;;;;;;;;4992645;28;93299;-65
2023/09/29 00:23:54;;;;;;;20.92;4.80;;;;;;;;;;4991246;28;92843;-65
2023/09/29 00:26:21;;;;;;;13.70;3.92;;;;;;;;;;4992164;28;94300;-66
2023/09/29 00:28:47;;;;;;;18.67;4.03;;;;;;;;;;4992382;28;93140;-66
2023/09/29 00:31:15;;;;;;;18.25;4.35;;;;;;;;;;4989301;28;95827;-65
2023/09/29 00:33:42;;;;;;;21.05;4.07;;;;;;;;;;4992234;28;92728;-65
2023/09/29 00:36:11;;;;;;;25.15;5.35;;;;;;;;;;4991286;28;93140;-65
2023/09/29 00:38:38;;;;;;;18.25;4.47;;;;;;;;;;4989974;28;94510;-65
2023/09/29 00:41:05;;;;;;;21.23;4.13;;;;;;;;;;4991786;28;92539;-65
2023/09/29 00:43:32;;;;;;;15.90;4.22;;;;;;;;;;4992109;28;93686;-66
2023/09/29 00:46:00;;;;;;;24.42;4.50;;;;;;;;;;4994602;28;94193;-65
2023/09/29 00:48:29;;;;;;;24.20;4.93;;;;;;;;;;4993077;28;93189;-67
2023/09/29 00:50:56;;;;;;;19.80;4.10;;;;;;;;;;4992646;28;94421;-65
2023/09/29 00:53:23;;;;;;;16.13;3.90;;;;;;;;;;4988902;28;92699;-65
2023/09/29 00:55:49;;;;;;;22.73;4.53;;;;;;;;;;4991076;28;94938;-65
2023/09/29 00:58:15;;;;;;;17.48;4.13;;;;;;;;;;4993253;28;94228;-65
2023/09/29 01:00:42;;;;;;;18.80;4.80;;;;;;;;;;4991930;28;94565;-65
2023/09/29 01:03:10;;;;;;;21.25;4.55;;;;;;;;;;4991090;28;93192;-66
2023/09/29 01:05:39;;;;;;;18.92;4.70;;;;;;;;;;4993011;28;92471;-64
2023/09/29 01:08:10;;;;;;;20.88;4.35;;;;;;;;;;4991683;28;94090;-65
2023/09/29 01:10:37;;;;;;;17.55;4.03;;;;;;;;;;4986147;28;93399;-65
2023/09/29 01:13:04;;;;;;;23.15;4.93;;;;;;;;;;4992988;28;91798;-65
2023/09/29 01:15:32;;;;;;;13.35;3.83;;;;;;;;;;4994636;28;92544;-66
2023/09/29 01:17:59;;;;;;;16.33;5.50;;;;;;;;;;4985033;28;93687;-66
2023/09/29 01:20:29;;;;;;;12.95;3.90;;;;;;;;;;4989611;28;95556;-66
2023/09/29 01:23:03;;;;;;;22.70;5.07;;;;;;;;;;4991872;28;96965;-66
2023/09/29 01:25:29;;;;;;;21.08;4.20;;;;;;;;;;4994369;28;94749;-66
2023/09/29 01:27:56;;;;;;;21.80;4.90;;;;;;;;;;4995469;28;93084;-65
2023/09/29 01:30:24;;;;;;;14.70;4.68;;;;;;;;;;4991307;28;94531;-64
2023/09/29 01:32:51;;;;;;;19.83;4.90;;;;;;;;;;4991632;28;92809;-65
2023/09/29 01:35:23;;;;;;;14.60;4.65;;;;;;;;;;4995281;28;93508;-64
2023/09/29 01:37:50;;;;;;;15.57;4.57;;;;;;;;;;4992825;28;93244;-64
2023/09/29 01:40:17;;;;;;;22.05;4.60;;;;;;;;;;4988379;28;92768;-64
2023/09/29 01:42:44;;;;;;;23.95;4.45;;;;;;;;;;4992901;28;93193;-65
2023/09/29 01:45:14;;;;;;;23.40;5.00;;;;;;;;;;4990934;28;95930;-64
2023/09/29 01:47:42;;;;;;;25.17;4.77;;;;;;;;;;4997665;28;92583;-65
2023/09/29 01:50:10;;;;;;;18.23;4.55;;;;;;;;;;4989943;28;93342;-64
2023/09/29 01:52:40;;;;;;;24.50;4.93;;;;;;;;;;4988124;28;92609;-64
2023/09/29 01:55:09;;;;;;;19.17;4.57;;;;;;;;;;4989227;28;94013;-64
2023/09/29 01:57:37;;;;;;;25.60;4.43;;;;;;;;;;4991877;28;93546;-65
2023/09/29 02:00:04;;;;;;;24.98;4.63;;;;;;;;;;4989774;28;94383;-65
2023/09/29 02:02:31;;;;;;;20.10;4.82;;;;;;;;;;4992168;28;92188;-63
2023/09/29 02:04:57;;;;;;;23.73;4.70;;;;;;;;;;4990158;28;93449;-63
2023/09/29 02:07:24;;;;;;;17.67;4.82;;;;;;;;;;4988394;28;92981;-64
2023/09/29 02:09:51;;;;;;;23.30;4.95;;;;;;;;;;4992965;28;98630;-64
2023/09/29 02:12:17;;;;;;;17.00;5.15;;;;;;;;;;4991948;28;93343;-64
2023/09/29 02:14:44;;;;;;;21.15;4.82;;;;;;;;;;4993042;28;94054;-64
2023/09/29 02:17:10;;;;;;;13.05;3.75;;;;;;;;;;4990483;28;93479;-64
2023/09/29 02:19:36;;;;;;;20.80;4.78;;;;;;;;;;4988708;28;92786;-64
2023/09/29 02:22:07;;;;;;;25.50;5.00;;;;;;;;;;4993596;28;93113;-64
2023/09/29 02:24:33;;;;;;;17.15;4.00;;;;;;;;;;4990861;28;96186;-64
2023/09/29 02:27:00;;;;;;;20.23;4.05;;;;;;;;;;4992328;28;91785;-64
2023/09/29 02:29:27;;;;;;;16.92;4.60;;;;;;;;;;4993475;28;94275;-64
2023/09/29 02:31:55;;;;;;;22.55;5.10;;;;;;;;;;4989568;28;94049;-66
2023/09/29 02:34:23;;;;;;;16.00;4.47;;;;;;;;;;4992034;28;94810;-64
2023/09/29 02:36:49;;;;;;;18.70;4.28;;;;;;;;;;4991487;28;93512;-64
2023/09/29 02:39:16;;;;;;;15.00;4.50;;;;;;;;;;4990747;28;94102;-64
2023/09/29 02:41:44;;;;;;;23.40;4.43;;;;;;;;;;4991044;28;94311;-64
2023/09/29 02:44:10;;;;;;;17.45;4.57;;;;;;;;;;4995327;28;94220;-65
2023/09/29 02:46:36;;;;;;;19.95;4.43;;;;;;;;;;4993041;28;92523;-66
2023/09/29 02:49:07;;;;;;;16.50;3.95;;;;;;;;;;4989282;28;93175;-66
2023/09/29 02:51:33;;;;;;;19.50;4.50;;;;;;;;;;4996654;28;92503;-65
2023/09/29 02:54:00;;;;;;;19.35;4.45;;;;;;;;;;4991025;28;92523;-65
2023/09/29 02:56:26;;;;;;;12.18;3.67;;;;;;;;;;4988408;28;93762;-66
2023/09/29 02:58:54;;;;;;;16.98;4.53;;;;;;;;;;4990115;28;95299;-65
2023/09/29 03:01:22;;;;;;;17.00;5.05;;;;;;;;;;4990125;28;95789;-65
2023/09/29 03:03:49;;;;;;;14.45;3.95;;;;;;;;;;4991802;28;93604;-65
2023/09/29 03:06:20;;;;;;;16.40;4.78;;;;;;;;;;4988996;28;92486;-65
2023/09/29 03:08:51;;;;;;;19.67;5.20;;;;;;;;;;4990398;28;93220;-65
2023/09/29 03:11:17;;;;;;;11.98;4.00;;;;;;;;;;4991671;28;94470;-65
2023/09/29 03:13:44;;;;;;;16.98;4.63;;;;;;;;;;4994177;28;94524;-66
2023/09/29 03:16:10;;;;;;;17.00;4.80;;;;;;;;;;4993342;28;92713;-65
2023/09/29 03:18:37;;;;;;;19.35;4.03;;;;;;;;;;4990141;28;92951;-65
2023/09/29 03:21:04;;;;;;;11.05;4.55;;;;;;;;;;4992329;28;94288;-65
2023/09/29 03:23:34;;;;;;;12.80;4.32;;;;;;;;;;4990363;28;96132;-66
2023/09/29 03:26:01;;;;;;;14.18;4.70;;;;;;;;;;4991865;28;92845;-65
2023/09/29 03:28:28;;;;;;;16.02;4.00;;;;;;;;;;4990307;28;94181;-65
2023/09/29 03:30:54;;;;;;;13.55;4.20;;;;;;;;;;4991685;28;93401;-65
2023/09/29 03:33:20;;;;;;;14.27;3.85;;;;;;;;;;4992160;28;94313;-66
2023/09/29 03:35:47;;;;;;;17.75;4.18;;;;;;;;;;4993055;28;93338;-63
2023/09/29 03:38:14;;;;;;;10.73;3.83;;;;;;;;;;4991454;28;92565;-64
2023/09/29 03:40:44;;;;;;;14.60;3.92;;;;;;;;;;4987185;28;93148;-65
2023/09/29 03:43:11;;;;;;;;;;;;;;;;;;4986727;28;93480;-66
2023/09/29 03:45:38;;;;;;;10.60;3.90;;;;;;;;;;4989750;28;119920;-66
2023/09/29 03:48:05;;;;;;;13.32;3.95;;;;;;;;;;4990606;28;96475;-67
2023/09/29 03:50:35;;;;;;;12.90;3.75;;;;;;;;;;4990388;28;93350;-66
2023/09/29 03:53:01;;;;;;;14.48;3.50;;;;;;;;;;4989632;28;92602;-66
2023/09/29 03:55:28;;;;;;;15.52;3.60;;;;;;;;;;4988431;28;93184;-66
2023/09/29 03:57:54;;;;;;;6.85;2.80;;;;;;;;;;4994157;28;93785;-66
2023/09/29 04:00:21;;;;;;;11.43;3.40;;;;;;;;;;4992393;28;94110;-66
2023/09/29 04:02:50;;;;;;;8.45;3.55;;;;;;;;;;4989173;28;94394;-67
2023/09/29 04:05:19;;;;;;;11.35;3.22;;;;;;;;;;4991390;28;91724;-66
2023/09/29 04:07:45;;;;;;;11.77;3.47;;;;;;;;;;4989538;28;93277;-66
2023/09/29 04:10:13;;;;;;;9.32;3.22;;;;;;;;;;4988452;28;94375;-66
2023/09/29 04:12:41;;;;;;;11.30;4.15;;;;;;;;;;4992279;28;94968;-66
2023/09/29 04:15:07;;;;;;;13.55;3.20;;;;;;;;;;4990582;28;94386;-65
2023/09/29 04:17:37;;;;;;;12.77;4.05;;;;;;;;;;4991749;28;93767;-66
2023/09/29 04:20:05;;;;;;;8.70;3.50;;;;;;;;;;4998226;28;92764;-66
2023/09/29 04:22:32;;;;;;;8.45;3.20;;;;;;;;;;4994021;28;94419;-65
2023/09/29 04:24:58;;;;;;;11.93;3.63;;;;;;;;;;4994150;28;92673;-65
2023/09/29 04:27:25;;;;;;;10.55;3.78;;;;;;;;;;4995221;28;92949;-65
2023/09/29 04:29:52;;;;;;;7.50;3.10;;;;;;;;;;4996625;28;93696;-61
2023/09/29 04:32:18;;;;;;;12.55;3.88;;;;;;;;;;4986542;28;92509;-61
2023/09/29 04:34:45;;;;;;;9.82;2.97;;;;;;;;;;4994240;28;94046;-60
2023/09/29 04:37:12;;;;;;;7.85;2.97;;;;;;;;;;4992102;28;98502;-61
2023/09/29 04:39:38;;;;;;;14.18;4.10;;;;;;;;;;4995800;28;92568;-60
2023/09/29 04:42:05;;;;;;;10.13;3.75;;;;;;;;;;4990800;28;94269;-60
2023/09/29 04:44:31;;;;;;;9.90;2.92;;;;;;;;;;4992099;28;92722;-61
2023/09/29 04:46:58;;;;;;;8.45;2.70;;;;;;;;;;4992852;28;93098;-60
2023/09/29 04:49:25;;;;;;;18.65;4.05;;;;;;;;;;4986846;28;93391;-60
2023/09/29 04:51:51;;;;;;;7.53;3.20;;;;;;;;;;4994942;28;92555;-60
2023/09/29 04:54:18;;;;;;;8.88;3.78;;;;;;;;;;4995014;28;94202;-61
2023/09/29 04:56:45;;;;;;;8.68;2.80;;;;;;;;;;4993922;28;93897;-60
2023/09/29 04:59:11;;;;;;;15.93;3.38;;;;;;;;;;4991314;28;93968;-60
2023/09/29 05:01:38;;;;;;;7.40;2.55;;;;;;;;;;4992683;28;94858;-61
2023/09/29 05:04:04;;;;;;;13.93;3.38;;;;;;;;;;4991904;28;92531;-62
2023/09/29 05:06:31;;;;;;;7.90;2.88;;;;;;;;;;4992511;28;93103;-62
2023/09/29 05:08:59;;;;;;;6.35;2.80;;;;;;;;;;4994392;28;93414;-61
2023/09/29 05:11:26;;;;;;;8.82;2.80;;;;;;;;;;4995891;28;94194;-60
2023/09/29 05:13:57;;;;;;;12.75;3.28;;;;;;;;;;4993262;28;93115;-61
2023/09/29 05:16:24;;;;;;;11.65;3.00;;;;;;;;;;4994389;28;95081;-62
2023/09/29 05:18:53;;;;;;;7.75;2.95;;;;;;;;;;4990436;28;91935;-62
2023/09/29 05:21:20;;;;;;;8.52;3.30;;;;;;;;;;4992991;28;92549;-60
2023/09/29 05:23:46;;;;;;;10.35;3.00;;;;;;;;;;4993696;28;92580;-63
2023/09/29 05:26:13;;;;;;;13.23;3.60;;;;;;;;;;4985000;28;94969;-63
2023/09/29 05:28:39;;;;;;;9.80;3.05;;;;;;;;;;4992735;28;94435;-62
2023/09/29 05:31:06;;;;;;;13.77;3.35;;;;;;;;;;4988175;28;94791;-63
2023/09/29 05:33:33;;;;;;;8.88;3.17;;;;;;;;;;4993435;28;93075;-61
2023/09/29 05:36:00;;;;;;;9.35;3.60;;;;;;;;;;4994654;28;93397;-61
2023/09/29 05:38:27;;;;;;;6.72;3.10;;;;;;;;;;4992906;28;94157;-67
2023/09/29 05:40:54;;;;;;;9.45;2.67;;;;;;;;;;4994176;28;92593;-67
2023/09/29 05:43:20;;;;;;;7.35;3.50;;;;;;;;;;4995226;28;93640;-68
2023/09/29 05:45:47;;;;;;;7.45;2.50;;;;;;;;;;4996412;28;92629;-71
2023/09/29 05:48:14;;;;;;;6.75;3.08;;;;;;;;;;4985981;28;93433;-69
2023/09/29 05:50:41;;;;;;;12.50;2.92;;;;;;;;;;4989993;28;96400;-67
2023/09/29 05:53:07;;;;;;;5.85;2.85;;;;;;;;;;4993968;28;96596;-68
2023/09/29 05:55:37;;;;;;;14.25;2.97;;;;;;;;;;4994664;28;94420;-68
2023/09/29 05:58:03;;;;;;;5.53;3.00;;;;;;;;;;4993015;28;93635;-68
2023/09/29 06:00:30;;;;;;;10.65;3.30;;;;;;;;;;4994000;28;94150;-68
2023/09/29 06:02:58;;;;;;;7.97;2.95;;;;;;;;;;4994417;28;94384;-68
2023/09/29 06:05:25;;;;;;;7.90;3.42;;;;;;;;;;4991543;28;92452;-68
2023/09/29 06:07:52;;;;;;;11.38;3.15;;;;;;;;;;4993018;28;91960;-68
2023/09/29 06:10:21;;;;;;;11.45;3.42;;;;;;;;;;4994694;28;92696;-68
2023/09/29 06:12:47;;;;;;;12.27;3.15;;;;;;;;;;4992240;28;95600;-68
2023/09/29 06:15:14;;;;;;;6.93;2.83;;;;;;;;;;4991985;28;96775;-68
2023/09/29 06:17:40;;;;;;;7.07;3.13;;;;;;;;;;4993715;28;92844;-69
2023/09/29 06:20:07;;;;;;;13.57;3.00;;;;;;;;;;4994366;28;93147;-68
2023/09/29 06:22:34;;;;;;;6.45;3.10;;;;;;;;;;4993764;28;92720;-68
2023/09/29 06:25:01;;;;;;;6.85;3.10;;;;;;;;;;4994493;28;92799;-67
2023/09/29 06:27:27;;;;;;;5.30;2.78;;;;;;;;;;4996653;28;93094;-67
2023/09/29 06:29:53;;;;;;;6.78;3.15;;;;;;;;;;4993923;28;92459;-68
2023/09/29 06:32:20;;;;;;;9.55;2.72;;;;;;;;;;4994229;28;92790;-68
2023/09/29 06:34:46;;;;;;;8.93;2.65;;;;;;;;;;4994277;28;93335;-68
2023/09/29 06:37:13;;;;;;;8.15;3.17;;;;;;;;;;4993819;28;92599;-69
2023/09/29 06:39:39;;;;;;;10.48;3.42;;;;;;;;;;4992317;28;94993;-67
2023/09/29 06:42:05;;;;;;;7.43;3.33;;;;;;;;;;4991952;28;93464;-68
2023/09/29 06:44:32;;;;;;;7.85;3.28;;;;;;;;;;4994440;28;92486;-68
2023/09/29 06:46:59;;;;;;;4.78;2.90;;;;;;;;;;4994076;28;94497;-67
2023/09/29 06:49:25;;;;;;;9.15;2.95;;;;;;;;;;4996078;28;93493;-67
2023/09/29 06:51:51;;;;;;;7.47;2.85;;;;;;;;;;4993482;28;93151;-68
2023/09/29 06:54:19;;;;;;;4.70;2.83;;;;;;;;;;4989444;28;93587;-68
2023/09/29 06:56:46;;;;;;;10.80;2.65;;;;;;;;;;4992463;28;91832;-68
2023/09/29 06:59:13;;;;;;;7.25;3.10;;;;;;;;;;4993548;28;92405;-68
2023/09/29 07:01:39;;;;;;;7.97;2.95;;;;;;;;;;4993429;28;93469;-68
2023/09/29 07:04:06;;;;;;;3.50;2.42;;;;;;;;;;4991166;28;95186;-69
2023/09/29 07:06:35;;;;;;;9.55;2.75;;;;;;;;;;4991912;28;95703;-67
2023/09/29 07:09:01;;;;;;;7.97;2.90;;;;;;;;;;4992437;28;93881;-69
2023/09/29 07:11:28;;;;;;;4.55;2.40;;;;;;;;;;5000803;28;93608;-67
2023/09/29 07:13:54;;;;;;;5.93;2.67;;;;;;;;;;4992994;28;93429;-68
2023/09/29 07:16:21;;;;;;;6.60;2.42;;;;;;;;;;4993401;28;92423;-68
2023/09/29 07:18:47;;;;;;;7.38;2.58;;;;;;;;;;4993186;28;93896;-68
2023/09/29 07:21:14;;;;;;;5.00;2.80;;;;;;;;;;4993871;28;93984;-67
2023/09/29 07:23:41;;;;;;;8.82;2.85;;;;;;;;;;4993048;28;92552;-68
2023/09/29 07:26:07;;;;;;;7.50;2.70;;;;;;;;;;4993197;28;94406;-68
2023/09/29 07:28:34;;;;;;;4.88;2.60;;;;;;;;;;4990826;28;95806;-68
2023/09/29 07:31:00;;;;;;;4.60;2.53;;;;;;;;;;4992981;28;92651;-68
2023/09/29 07:33:26;;;;;;;7.13;2.35;;;;;;;;;;4993537;28;93168;-66
2023/09/29 07:35:53;;;;;;;12.55;3.40;;;;;;;;;;4982919;28;92664;-68
2023/09/29 07:38:19;;;;;;;12.60;2.83;;;;;;;;;;4980913;28;93521;-68
2023/09/29 07:40:46;;;;;;;5.32;2.72;;;;;;;;;;4991304;28;93408;-68
2023/09/29 07:43:13;;;;;;;5.90;2.58;;;;;;;;;;4989166;28;93019;-67
2023/09/29 07:45:39;;;;;;;8.25;3.00;;;;;;;;;;4989680;28;93355;-68
2023/09/29 07:48:06;;;;;;;8.05;3.05;;;;;;;;;;4992648;28;93319;-69
2023/09/29 07:50:32;;;;;;;8.95;2.85;;;;;;;;;;4992573;28;92636;-68
2023/09/29 07:52:59;;;;;;;5.75;2.75;;;;;;;;;;4989980;28;94937;-68
2023/09/29 07:55:25;;;;;;;4.40;2.40;;;;;;;;;;4989081;28;93464;-67
2023/09/29 07:57:53;;;;;;;8.43;2.80;;;;;;;;;;4988671;28;93295;-68
2023/09/29 08:00:20;;;;;;;4.82;2.40;;;;;;;;;;4992402;28;93353;-61
2023/09/29 08:02:46;;;;;;;7.03;2.58;;;;;;;;;;4985815;28;93988;-61
2023/09/29 08:05:13;;;;;;;8.95;3.05;;;;;;;;;;4988873;28;93645;-63
2023/09/29 08:07:40;;;;;;;4.57;2.63;;;;;;;;;;4991885;28;93064;-61
2023/09/29 08:10:07;;;;;;;10.10;3.00;;;;;;;;;;4992964;28;91649;-61
2023/09/29 08:12:34;;;;;;;7.97;3.05;;;;;;;;;;4986520;28;93015;-62
2023/09/29 08:15:02;;;;;;;7.35;2.90;;;;;;;;;;4987024;28;94590;-61
2023/09/29 08:17:29;;;;;;;9.27;2.88;;;;;;;;;;4987388;28;95218;-62
2023/09/29 08:19:55;;;;;;;6.70;2.92;;;;;;;;;;4991569;28;94481;-62
2023/09/29 08:22:22;;;;;;;5.45;2.90;;;;;;;;;;4984127;28;94019;-62
2023/09/29 08:25:07;;;;;;;5.25;2.85;;;;;;;;;;4984070;28;93431;-63
2023/09/29 08:27:35;;;;;;;8.52;2.60;;;;;;;;;;4991846;27;93825;-63
2023/09/29 08:30:01;;;;;;;8.02;2.38;;;;;;;;;;4987225;28;92493;-65
2023/09/29 08:32:28;;;;;;;5.05;2.55;;;;;;;;;;4987152;28;93106;-64
2023/09/29 08:34:54;;;;;;;6.35;2.50;;;;;;;;;;4987941;28;92670;-63
2023/09/29 08:37:22;;;;;;;7.68;2.40;;;;;;;;;;4989466;28;93413;-64
2023/09/29 08:39:50;;;;;;;4.03;2.10;;;;;;;;;;4985884;28;93379;-63
2023/09/29 08:42:32;;;;;;;4.15;2.05;;;;;;;;;;4984588;28;94946;-64
2023/09/29 08:44:59;;;;;;;8.13;2.45;;;;;;;;;;4988291;28;95461;-62
2023/09/29 08:47:28;;;;;;;3.15;1.88;;;;;;;;;;4985642;28;93488;-63
2023/09/29 08:49:58;;;;;;;9.55;2.55;;;;;;;;;;4990525;28;92523;-64
2023/09/29 08:52:24;;;;;;;;;;;;;;;;;;4990102;28;93222;-61
2023/09/29 08:54:51;;;;;;;5.03;2.15;;;;;;;;;;4978372;28;124007;-64
2023/09/29 08:57:19;;;;;;;12.68;2.92;;;;;;;;;;4990634;28;92866;-64
2023/09/29 08:59:47;;;;;;;6.07;2.63;;;;;;;;;;4992883;28;92861;-64
2023/09/29 09:02:14;;;;;;;8.90;2.58;;;;;;;;;;4988473;28;92443;-67
2023/09/29 09:04:40;;;;;;;5.00;2.47;;;;;;;;;;4990296;28;93255;-65
2023/09/29 09:07:07;;;;;;;5.82;2.38;;;;;;;;;;4992737;28;95858;-65
2023/09/29 09:09:35;;;;;;;6.60;2.15;;;;;;;;;;4996871;28;92562;-69
2023/09/29 09:12:02;;;;;;;10.55;3.05;;;;;;;;;;4992761;28;92874;-69
2023/09/29 09:14:39;;;;;;;7.00;2.60;;;;;;;;;;4994604;28;92949;-73
2023/09/29 09:17:07;;;;;;;8.77;2.50;;;;;;;;;;4995134;28;92843;-73
2023/09/29 09:19:41;;;;;;;5.25;2.83;;;;;;;;;;4991977;28;93227;-73
2023/09/29 09:22:14;;;;;;;7.25;2.70;;;;;;;;;;4996586;28;94427;-70
2023/09/29 09:24:41;;;;;;;5.15;2.45;;;;;;;;;;4995286;28;93396;-69
2023/09/29 09:27:08;;;;;;;3.85;2.30;;;;;;;;;;4986646;28;93449;-73
2023/09/29 09:29:44;;;;;;;7.00;2.55;;;;;;;;;;4989575;28;94114;-67
2023/09/29 09:32:11;;;;;;;12.32;2.83;;;;;;;;;;4993213;28;94863;-67
2023/09/29 09:34:37;;;;;;;8.27;2.85;;;;;;;;;;4992969;28;93555;-66
2023/09/29 09:37:06;;;;;;;8.02;2.45;;;;;;;;;;4994570;28;92432;-67
2023/09/29 09:39:33;;;;;;;7.63;2.72;;;;;;;;;;4990173;28;94063;-67
2023/09/29 09:42:04;;;;;;;11.88;3.03;;;;;;;;;;4988483;28;97115;-67
2023/09/29 09:44:32;;;;;;;7.22;2.30;;;;;;;;;;4990417;28;93163;-67
2023/09/29 09:47:04;;;;;;;9.27;2.33;;;;;;;;;;4994742;28;93482;-67
2023/09/29 09:49:41;;;;;;;7.00;2.67;;;;;;;;;;4993093;28;94266;-67
2023/09/29 09:52:12;;;;;;;7.15;1.85;;;;;;;;;;4993251;28;92480;-72
2023/09/29 09:54:42;;;;;;;8.60;2.28;;;;;;;;;;4991280;28;94466;-73
2023/09/29 09:57:10;;;;;;;4.43;2.20;;;;;;;;;;4992504;28;94981;-73
2023/09/29 09:59:37;;;;;;;14.07;2.20;;;;;;;;;;4991538;28;96749;-74
2023/09/29 10:02:06;;;;;;;6.40;2.20;;;;;;;;;;4990031;28;94287;-73
2023/09/29 10:04:36;;;;;;;7.90;2.13;;;;;;;;;;4986492;28;92833;-73
2023/09/29 10:07:04;;;;;;;5.13;2.00;;;;;;;;;;4995416;28;93055;-73
2023/09/29 10:09:44;;;;;;;5.40;2.28;;;;;;;;;;4990858;28;95855;-73
2023/09/29 10:12:23;;;;;;;6.30;2.30;;;;;;;;;;4991782;28;94453;-73
2023/09/29 10:14:49;;;;;;;4.35;2.03;;;;;;;;;;4986351;28;92717;-73
2023/09/29 10:17:16;;;;;;;4.63;1.90;;;;;;;;;;4989074;28;92380;-68
2023/09/29 10:19:44;;;;;;;5.85;1.80;;;;;;;;;;4993511;28;94157;-74
2023/09/29 10:22:20;;;;;;;2.75;1.90;;;;;;;;;;4983539;28;96889;-74
2023/09/29 10:24:46;;;;;;;3.33;1.52;;;;;;;;;;4989400;28;92528;-73
2023/09/29 10:27:14;;;;;;;4.60;2.08;;;;;;;;;;4991836;28;93572;-74
2023/09/29 10:29:40;;;;;;;4.25;1.83;;;;;;;;;;4993069;28;93288;-74
2023/09/29 10:32:11;;;;;;;3.42;1.95;;;;;;;;;;4994110;28;93158;-74
2023/09/29 10:34:38;;;;;;;6.10;2.05;;;;;;;;;;4987050;28;93843;-73
2023/09/29 10:37:04;;;;;;;3.80;2.15;;;;;;;;;;4989638;28;94459;-75
2023/09/29 10:39:31;;;;;;;7.10;2.17;;;;;;;;;;4988499;28;94150;-76
2023/09/29 10:41:58;;;;;;;4.30;1.80;;;;;;;;;;4992419;28;94428;-74
2023/09/29 10:44:28;;;;;;;5.25;2.03;;;;;;;;;;4990067;28;92653;-73
2023/09/29 10:46:55;;;;;;;6.03;2.38;;;;;;;;;;4992288;28;95633;-74
2023/09/29 10:49:31;;;;;;;9.13;2.20;;;;;;;;;;4995021;28;93407;-75
2023/09/29 10:51:58;;;;;;;7.93;2.60;;;;;;;;;;4990010;28;93116;-74
2023/09/29 10:54:24;;;;;;;4.38;2.13;;;;;;;;;;4991430;28;93465;-75
2023/09/29 10:56:51;;;;;;;5.93;2.08;;;;;;;;;;4992361;28;92470;-74
2023/09/29 10:59:17;;;;;;;4.93;2.28;;;;;;;;;;4994304;28;93118;-72
2023/09/29 11:01:44;;;;;;;6.80;2.42;;;;;;;;;;4990701;28;93507;-73
2023/09/29 11:04:10;;;;;;;7.32;2.38;;;;;;;;;;4991526;28;91809;-72
2023/09/29 11:06:45;;;;;;;6.57;2.30;;;;;;;;;;4991678;28;92580;-74
2023/09/29 11:09:19;;;;;;;8.68;2.40;;;;;;;;;;4990045;28;93556;-72
2023/09/29 11:11:46;;;;;;;4.60;2.50;;;;;;;;;;4991206;28;95602;-74
2023/09/29 11:14:12;;;;;;;7.05;2.22;;;;;;;;;;4991370;28;93336;-73
2023/09/29 11:16:39;;;;;;;5.45;2.28;;;;;;;;;;4993260;28;94961;-72
2023/09/29 11:19:06;;;;;;;6.97;2.47;;;;;;;;;;4988933;28;93329;-73
2023/09/29 11:21:34;;;;;;;5.53;2.50;;;;;;;;;;4988939;28;93295;-73
2023/09/29 11:24:04;;;;;;;8.80;2.35;;;;;;;;;;4988175;28;92678;-73
2023/09/29 11:26:30;;;;;;;;;;;;;;;;;;4990293;28;93562;-70
2023/09/29 11:28:58;;;;;;;9.90;2.40;;;;;;;;;;4993200;28;123582;-67
2023/09/29 11:31:25;;;;;;;4.45;2.20;;;;;;;;;;4987971;28;92576;-68
2023/09/29 11:33:51;;;;;;;4.97;2.22;;;;;;;;;;4995663;28;94581;-67
2023/09/29 11:36:18;;;;;;;5.35;2.15;;;;;;;;;;4991179;28;94858;-68
2023/09/29 11:38:45;;;;;;;12.65;3.10;;;;;;;;;;4996717;28;95580;-68
2023/09/29 11:41:13;;;;;;;7.22;2.78;;;;;;;;;;4988249;28;93364;-68
2023/09/29 11:43:40;;;;;;;8.68;2.38;;;;;;;;;;4989034;28;92428;-68
2023/09/29 11:46:06;;;;;;;6.22;2.22;;;;;;;;;;4993079;28;94211;-68
2023/09/29 11:48:35;;;;;;;6.55;1.88;;;;;;;;;;4990639;28;92630;-68
2023/09/29 11:51:03;;;;;;;3.55;1.50;;;;;;;;;;4985669;28;94139;-68
2023/09/29 11:53:30;;;;;;;6.57;1.65;;;;;;;;;;4992967;28;93073;-67
2023/09/29 11:55:57;;;;;;;3.25;1.13;;;;;;;;;;4994147;28;93421;-65
2023/09/29 11:58:26;;;;;;;2.55;1.00;;;;;;;;;;4992748;28;93317;-64
2023/09/29 12:00:52;;;;;;;5.82;1.50;;;;;;;;;;4987216;28;95841;-68
2023/09/29 12:03:21;;;;;;;8.10;2.00;;;;;;;;;;4990275;28;93539;-65
2023/09/29 12:05:51;;;;;;;5.32;1.42;;;;;;;;;;4989221;28;93069;-67
2023/09/29 12:08:19;;;;;;;;;;;;;;;;;;4986434;28;93459;-65
2023/09/29 12:10:46;;;;;;;3.78;1.05;;;;;;;;;;4990184;28;118000;-69
2023/09/29 12:13:15;;;;;;;5.57;1.30;;;;;;;;;;4992413;28;93083;-67
2023/09/29 12:15:48;;;;;;;5.40;1.10;;;;;;;;;;4996601;28;93382;-67
2023/09/29 12:18:15;;;;;;;4.35;1.40;;;;;;;;;;4988150;28;91875;-67
2023/09/29 12:20:41;;;;;;;6.18;1.30;;;;;;;;;;4989901;28;93337;-67
2023/09/29 12:23:08;;;;;;;4.82;1.42;;;;;;;;;;4992434;28;92637;-66
2023/09/29 12:25:35;;;;;;;6.20;1.38;;;;;;;;;;4990666;28;95216;-66
2023/09/29 12:28:03;;;;;;;5.50;1.00;;;;;;;;;;4989807;28;93739;-66
2023/09/29 12:30:30;;;;;;;7.75;2.05;;;;;;;;;;4987822;28;92618;-67
2023/09/29 12:32:56;;;;;;;4.00;1.10;;;;;;;;;;4985770;28;93217;-64
2023/09/29 12:35:23;;;;;;;4.10;1.25;;;;;;;;;;4992057;28;93354;-65
2023/09/29 12:37:49;;;;;;;3.60;1.08;;;;;;;;;;4985844;28;92434;-65
2023/09/29 12:40:16;;;;;;;4.32;1.35;;;;;;;;;;4984908;28;93094;-66
2023/09/29 12:42:50;;;;;;;4.10;1.40;;;;;;;;;;4994041;28;93978;-64
2023/09/29 12:45:18;;;;;;;3.25;1.23;;;;;;;;;;4993040;28;92424;-64
2023/09/29 12:47:45;;;;;;;8.13;1.35;;;;;;;;;;4994666;28;93610;-69
2023/09/29 12:50:12;;;;;;;3.08;1.23;;;;;;;;;;4993998;28;95333;-64
2023/09/29 12:52:38;;;;;;;9.63;1.70;;;;;;;;;;4995419;28;94173;-66
2023/09/29 12:55:05;;;;;;;5.03;1.30;;;;;;;;;;4995167;28;93795;-65
2023/09/29 12:57:32;;;;;;;2.55;0.98;;;;;;;;;;4991078;28;92596;-64
2023/09/29 12:59:59;;;;;;;6.00;1.50;;;;;;;;;;4994878;28;92717;-65
2023/09/29 13:02:31;;;;;;;4.53;1.48;;;;;;;;;;4989068;28;92623;-66
2023/09/29 13:04:58;;;;;;;7.85;1.73;;;;;;;;;;4993878;28;93155;-64
2023/09/29 13:07:25;;;;;;;4.57;1.13;;;;;;;;;;4995311;28;93695;-64
2023/09/29 13:09:52;;;;;;;7.40;1.58;;;;;;;;;;4994636;28;92483;-67
2023/09/29 13:12:19;;;;;;;4.70;1.58;;;;;;;;;;4992015;28;94251;-66
2023/09/29 13:14:57;;;;;;;3.30;1.17;;;;;;;;;;4988472;28;95788;-66
2023/09/29 13:17:23;;;;;;;7.70;1.45;;;;;;;;;;4995325;28;92489;-65
2023/09/29 13:19:50;;;;;;;13.85;1.67;;;;;;;;;;4994795;28;94706;-65
2023/09/29 13:22:16;;;;;;;8.55;1.95;;;;;;;;;;4997952;28;93479;-65
2023/09/29 13:24:43;;;;;;;3.42;1.27;;;;;;;;;;4994773;28;93121;-65
2023/09/29 13:27:10;;;;;;;16.75;2.25;;;;;;;;;;4984930;28;94573;-65
2023/09/29 13:29:37;;;;;;;6.20;1.60;;;;;;;;;;4992603;28;93846;-64
2023/09/29 13:32:03;;;;;;;10.07;2.20;;;;;;;;;;4994848;28;93109;-65
2023/09/29 13:34:30;;;;;;;15.32;2.28;;;;;;;;;;4994172;28;94803;-63
2023/09/29 13:36:56;;;;;;;8.40;1.92;;;;;;;;;;4993401;28;92771;-63
2023/09/29 13:39:22;;;;;;;14.02;2.65;;;;;;;;;;4991777;28;94911;-62
2023/09/29 13:41:49;;;;;;;16.25;2.20;;;;;;;;;;4994229;28;93499;-62
2023/09/29 13:44:15;;;;;;;9.35;2.25;;;;;;;;;;4993898;28;92741;-62
2023/09/29 13:46:42;;;;;;;15.82;2.58;;;;;;;;;;4994465;28;94572;-63
2023/09/29 13:49:28;;;;;;;13.48;2.35;;;;;;;;;;4992429;28;92671;-67
2023/09/29 13:51:54;;;;;;;9.43;2.17;;;;;;;;;;4991076;28;93152;-69
2023/09/29 13:54:20;;;;;;;7.30;1.90;;;;;;;;;;4992613;28;96447;-69
2023/09/29 13:56:47;;;;;;;9.18;2.45;;;;;;;;;;4992904;28;94924;-66
2023/09/29 13:59:13;;;;;;;12.70;1.98;;;;;;;;;;4991649;28;92909;-69
2023/09/29 14:01:41;;;;;;;10.57;2.35;;;;;;;;;;4990883;28;94417;-69
2023/09/29 14:04:07;;;;;;;10.40;2.70;;;;;;;;;;4990298;28;94927;-69
2023/09/29 14:06:34;;;;;;;11.20;2.92;;;;;;;;;;4996540;28;95394;-68
2023/09/29 14:09:01;;;;;;;15.63;3.42;;;;;;;;;;4993681;28;92498;-69
2023/09/29 14:11:42;;;;;;;8.90;2.40;;;;;;;;;;4990683;28;94563;-69
2023/09/29 14:14:08;;;;;;;13.35;2.80;;;;;;;;;;4992894;28;93428;-68
2023/09/29 14:16:35;;;;;;;10.90;3.05;;;;;;;;;;4996084;28;92541;-71
2023/09/29 14:19:01;;;;;;;11.02;3.00;;;;;;;;;;4993842;28;93134;-69
2023/09/29 14:21:28;;;;;;;14.80;2.90;;;;;;;;;;4993613;28;91835;-68
2023/09/29 14:23:54;;;;;;;11.18;2.72;;;;;;;;;;4994666;28;92739;-69
2023/09/29 14:26:21;;;;;;;10.15;2.70;;;;;;;;;;4994812;28;94158;-69
2023/09/29 14:28:47;;;;;;;10.23;2.67;;;;;;;;;;4994992;28;95919;-69
2023/09/29 14:31:14;;;;;;;11.80;2.70;;;;;;;;;;4991335;28;95204;-67
2023/09/29 14:33:41;;;;;;;16.48;3.05;;;;;;;;;;4990035;28;94460;-68
2023/09/29 14:36:07;;;;;;;10.93;2.90;;;;;;;;;;4993623;28;92603;-68
2023/09/29 14:38:34;;;;;;;11.65;2.80;;;;;;;;;;4993678;28;93132;-68
2023/09/29 14:41:00;;;;;;;10.40;3.10;;;;;;;;;;4993358;28;93409;-67